createdAt,value
2023-05-02T00:00:32.354Z,1.42
2023-05-02T00:01:32.338Z,1.39
2023-05-02T00:02:32.594Z,1.39
2023-05-02T00:03:32.360Z,1.39
2023-05-02T00:04:32.438Z,1.39
2023-05-02T00:05:32.320Z,1.37
2023-05-02T00:06:32.377Z,1.39
2023-05-02T00:07:32.269Z,1.40
2023-05-02T00:08:32.402Z,1.42
2023-05-02T00:09:32.273Z,1.42
2023-05-02T00:10:32.254Z,1.42
2023-05-02T00:11:32.258Z,1.44
2023-05-02T00:12:32.237Z,1.44
2023-05-02T00:13:32.218Z,1.44
2023-05-02T00:14:32.202Z,1.44
2023-05-02T00:15:32.196Z,1.44
2023-05-02T00:16:32.293Z,1.46
2023-05-02T00:17:32.259Z,1.47
2023-05-02T00:18:32.166Z,1.46
2023-05-02T00:19:32.143Z,1.46
2023-05-02T00:20:32.144Z,1.46
2023-05-02T00:21:32.127Z,1.44
2023-05-02T00:22:32.122Z,1.46
2023-05-02T00:23:32.309Z,1.47
2023-05-02T00:24:32.119Z,1.43
2023-05-02T00:25:32.083Z,1.46
2023-05-02T00:26:32.088Z,1.44
2023-05-02T00:27:32.070Z,1.43
2023-05-02T00:28:32.055Z,1.43
2023-05-02T00:29:32.085Z,1.40
2023-05-02T00:30:32.059Z,1.39
2023-05-02T00:31:32.091Z,1.36
2023-05-02T00:32:32.042Z,1.32
2023-05-02T00:33:32.026Z,1.29
2023-05-02T00:34:32.023Z,1.26
2023-05-02T00:35:32.025Z,1.22
2023-05-02T00:36:32.011Z,1.19
2023-05-02T00:37:32.015Z,1.16
2023-05-02T00:38:31.964Z,1.15
2023-05-02T00:39:31.955Z,1.12
2023-05-02T00:40:31.949Z,1.12
2023-05-02T00:41:31.992Z,1.08
2023-05-02T00:42:31.930Z,1.06
2023-05-02T00:43:31.925Z,1.07
2023-05-02T00:44:31.918Z,1.03
2023-05-02T00:45:31.908Z,1.04
2023-05-02T00:46:31.972Z,1.01
2023-05-02T00:47:31.935Z,1.00
2023-05-02T00:48:31.879Z,0.96
2023-05-02T00:49:31.873Z,0.90
2023-05-02T00:50:31.861Z,0.85
2023-05-02T00:51:31.844Z,0.78
2023-05-02T00:52:31.841Z,0.71
2023-05-02T00:53:31.859Z,0.67
2023-05-02T00:54:31.809Z,0.62
2023-05-02T00:55:31.797Z,0.49
2023-05-02T00:56:31.805Z,0.43
2023-05-02T00:57:31.766Z,0.41
2023-05-02T00:58:31.786Z,0.36
2023-05-02T00:59:31.790Z,0.34
2023-05-02T01:00:31.756Z,0.31
2023-05-02T01:01:31.805Z,0.30
2023-05-02T01:02:31.822Z,0.25
2023-05-02T01:03:31.766Z,0.23
2023-05-02T01:04:31.710Z,0.21
2023-05-02T01:05:31.718Z,0.21
2023-05-02T01:06:31.802Z,0.23
2023-05-02T01:07:31.673Z,0.21
2023-05-02T01:08:31.681Z,0.23
2023-05-02T01:09:31.646Z,0.24
2023-05-02T01:10:31.651Z,0.24
2023-05-02T01:11:31.660Z,0.24
2023-05-02T01:12:31.616Z,0.24
2023-05-02T01:13:31.639Z,0.25
2023-05-02T01:14:31.599Z,0.23
2023-05-02T01:15:31.580Z,0.21
2023-05-02T01:16:31.646Z,0.21
2023-05-02T01:17:31.778Z,0.16
2023-05-02T01:18:31.583Z,0.12
2023-05-02T01:19:31.580Z,0.06
2023-05-02T01:20:31.547Z,0.07
2023-05-02T01:21:31.538Z,0.07
2023-05-02T01:22:31.524Z,0.06
2023-05-02T01:23:31.548Z,0.06
2023-05-02T01:24:31.504Z,0.05
2023-05-02T01:25:31.500Z,-0.01
2023-05-02T01:26:31.484Z,-0.04
2023-05-02T01:27:31.486Z,-0.05
2023-05-02T01:28:31.464Z,-0.08
2023-05-02T01:29:31.477Z,-0.08
2023-05-02T01:30:31.448Z,-0.09
2023-05-02T01:31:31.486Z,-0.13
2023-05-02T01:32:31.455Z,-0.22
2023-05-02T01:33:31.417Z,-0.26
2023-05-02T01:34:31.406Z,-0.30
2023-05-02T01:35:31.429Z,-0.36
2023-05-02T01:36:31.373Z,-0.34
2023-05-02T01:37:31.369Z,-0.36
2023-05-02T01:38:31.354Z,-0.34
2023-05-02T01:39:31.353Z,-0.34
2023-05-02T01:40:31.349Z,-0.34
2023-05-02T01:41:31.369Z,-0.36
2023-05-02T01:42:31.323Z,-0.34
2023-05-02T01:43:31.301Z,-0.36
2023-05-02T01:44:31.304Z,-0.34
2023-05-02T01:45:31.285Z,-0.31
2023-05-02T01:46:31.377Z,-0.33
2023-05-02T01:47:31.363Z,-0.31
2023-05-02T01:48:31.258Z,-0.30
2023-05-02T01:49:31.250Z,-0.30
2023-05-02T01:50:31.253Z,-0.30
2023-05-02T01:51:31.232Z,-0.31
2023-05-02T01:52:31.229Z,-0.30
2023-05-02T01:53:31.243Z,-0.34
2023-05-02T01:54:31.212Z,-0.37
2023-05-02T01:55:31.204Z,-0.39
2023-05-02T01:56:31.201Z,-0.39
2023-05-02T01:57:31.188Z,-0.39
2023-05-02T01:58:31.185Z,-0.39
2023-05-02T01:59:31.215Z,-0.37
2023-05-02T02:00:31.156Z,-0.39
2023-05-02T02:01:31.348Z,-0.36
2023-05-02T02:02:31.151Z,-0.34
2023-05-02T02:03:31.221Z,-0.33
2023-05-02T02:04:31.189Z,-0.30
2023-05-02T02:05:31.137Z,-0.30
2023-05-02T02:06:31.124Z,-0.30
2023-05-02T02:07:31.092Z,-0.30
2023-05-02T02:08:31.078Z,-0.31
2023-05-02T02:09:31.062Z,-0.33
2023-05-02T02:10:31.072Z,-0.34
2023-05-02T02:11:31.076Z,-0.34
2023-05-02T02:12:31.041Z,-0.37
2023-05-02T02:13:31.039Z,-0.41
2023-05-02T02:14:31.009Z,-0.44
2023-05-02T02:15:30.996Z,-0.47
2023-05-02T02:16:30.995Z,-0.48
2023-05-02T02:17:31.052Z,-0.51
2023-05-02T02:18:30.966Z,-0.50
2023-05-02T02:19:30.919Z,-0.51
2023-05-02T02:20:30.916Z,-0.48
2023-05-02T02:21:30.953Z,-0.50
2023-05-02T02:22:30.998Z,-0.47
2023-05-02T02:23:30.943Z,-0.47
2023-05-02T02:24:30.907Z,-0.42
2023-05-02T02:25:30.923Z,-0.39
2023-05-02T02:26:30.894Z,-0.41
2023-05-02T02:27:30.840Z,-0.41
2023-05-02T02:28:30.881Z,-0.42
2023-05-02T02:29:30.889Z,-0.44
2023-05-02T02:30:30.861Z,-0.47
2023-05-02T02:31:30.951Z,-0.52
2023-05-02T02:32:30.852Z,-0.55
2023-05-02T02:33:30.780Z,-0.65
2023-05-02T02:34:30.767Z,-0.69
2023-05-02T02:35:30.790Z,-0.72
2023-05-02T02:36:30.892Z,-0.75
2023-05-02T02:37:30.738Z,-0.73
2023-05-02T02:38:30.735Z,-0.78
2023-05-02T02:39:30.722Z,-0.81
2023-05-02T02:40:30.724Z,-0.83
2023-05-02T02:41:30.730Z,-0.84
2023-05-02T02:42:30.696Z,-0.78
2023-05-02T02:43:30.678Z,-0.75
2023-05-02T02:44:30.802Z,-0.73
2023-05-02T02:45:30.770Z,-0.73
2023-05-02T02:46:30.704Z,-0.83
2023-05-02T02:47:30.669Z,-0.92
2023-05-02T02:48:30.635Z,-0.92
2023-05-02T02:49:30.627Z,-1.00
2023-05-02T02:50:30.608Z,-1.06
2023-05-02T02:51:30.616Z,-1.05
2023-05-02T02:52:30.590Z,-1.00
2023-05-02T02:53:30.605Z,-0.97
2023-05-02T02:54:30.576Z,-0.94
2023-05-02T02:55:30.565Z,-0.91
2023-05-02T02:56:30.554Z,-0.87
2023-05-02T02:57:30.533Z,-0.78
2023-05-02T02:58:30.528Z,-0.63
2023-05-02T02:59:30.566Z,-0.60
2023-05-02T03:00:30.515Z,-0.57
2023-05-02T03:01:30.523Z,-0.51
2023-05-02T03:02:30.520Z,-0.47
2023-05-02T03:03:30.494Z,-0.48
2023-05-02T03:04:30.466Z,-0.44
2023-05-02T03:05:30.482Z,-0.50
2023-05-02T03:06:30.493Z,-0.52
2023-05-02T03:07:30.458Z,-0.57
2023-05-02T03:08:30.424Z,-0.55
2023-05-02T03:09:30.412Z,-0.60
2023-05-02T03:10:30.411Z,-0.63
2023-05-02T03:11:30.423Z,-0.65
2023-05-02T03:12:30.394Z,-0.63
2023-05-02T03:13:30.379Z,-0.62
2023-05-02T03:14:30.380Z,-0.63
2023-05-02T03:15:30.361Z,-0.66
2023-05-02T03:16:30.437Z,-0.66
2023-05-02T03:17:30.456Z,-0.68
2023-05-02T03:18:30.344Z,-0.69
2023-05-02T03:19:30.333Z,-0.72
2023-05-02T03:20:30.325Z,-0.73
2023-05-02T03:21:30.312Z,-0.68
2023-05-02T03:22:30.313Z,-0.66
2023-05-02T03:23:30.312Z,-0.66
2023-05-02T03:24:30.282Z,-0.66
2023-05-02T03:25:30.278Z,-0.65
2023-05-02T03:26:30.263Z,-0.60
2023-05-02T03:27:30.245Z,-0.63
2023-05-02T03:28:30.246Z,-0.62
2023-05-02T03:29:30.266Z,-0.57
2023-05-02T03:30:30.217Z,-0.55
2023-05-02T03:31:30.237Z,-0.54
2023-05-02T03:32:30.243Z,-0.54
2023-05-02T03:33:30.220Z,-0.59
2023-05-02T03:34:30.191Z,-0.59
2023-05-02T03:35:30.194Z,-0.62
2023-05-02T03:36:30.166Z,-0.60
2023-05-02T03:37:30.144Z,-0.59
2023-05-02T03:38:30.182Z,-0.54
2023-05-02T03:39:30.132Z,-0.52
2023-05-02T03:40:30.115Z,-0.51
2023-05-02T03:41:30.126Z,-0.51
2023-05-02T03:42:30.096Z,-0.51
2023-05-02T03:43:30.086Z,-0.52
2023-05-02T03:44:30.080Z,-0.55
2023-05-02T03:45:30.063Z,-0.52
2023-05-02T03:46:30.089Z,-0.52
2023-05-02T03:47:30.123Z,-0.48
2023-05-02T03:48:30.038Z,-0.44
2023-05-02T03:49:30.027Z,-0.44
2023-05-02T03:50:30.025Z,-0.45
2023-05-02T03:51:30.005Z,-0.50
2023-05-02T03:52:30.779Z,-0.50
2023-05-02T03:53:30.016Z,-0.50
2023-05-02T03:54:29.988Z,-0.51
2023-05-02T03:55:29.976Z,-0.52
2023-05-02T03:56:29.982Z,-0.54
2023-05-02T03:57:29.960Z,-0.54
2023-05-02T03:58:29.953Z,-0.48
2023-05-02T03:59:29.967Z,-0.37
2023-05-02T04:00:29.933Z,-0.36
2023-05-02T04:01:29.923Z,-0.36
2023-05-02T04:02:30.054Z,-0.31
2023-05-02T04:03:30.266Z,-0.26
2023-05-02T04:04:29.918Z,-0.27
2023-05-02T04:05:29.945Z,-0.26
2023-05-02T04:06:29.911Z,-0.26
2023-05-02T04:07:29.859Z,-0.26
2023-05-02T04:08:29.854Z,-0.26
2023-05-02T04:09:29.839Z,-0.04
2023-05-02T04:10:29.830Z,0.02
2023-05-02T04:11:29.860Z,0.16
2023-05-02T04:12:29.811Z,0.34
2023-05-02T04:13:29.791Z,0.45
2023-05-02T04:14:29.785Z,0.49
2023-05-02T04:15:29.771Z,0.53
2023-05-02T04:16:29.807Z,0.71
2023-05-02T04:17:29.832Z,0.80
2023-05-02T04:18:29.742Z,0.83
2023-05-02T04:19:29.733Z,0.80
2023-05-02T04:20:29.737Z,0.80
2023-05-02T04:21:29.723Z,0.88
2023-05-02T04:22:29.711Z,0.92
2023-05-02T04:23:29.723Z,0.94
2023-05-02T04:24:29.701Z,0.97
2023-05-02T04:25:29.677Z,1.01
2023-05-02T04:26:29.672Z,1.04
2023-05-02T04:27:29.668Z,1.03
2023-05-02T04:28:29.648Z,1.04
2023-05-02T04:29:29.675Z,1.01
2023-05-02T04:30:29.636Z,1.04
2023-05-02T04:31:29.668Z,1.12
2023-05-02T04:32:29.666Z,1.12
2023-05-02T04:33:29.621Z,1.12
2023-05-02T04:34:29.591Z,1.06
2023-05-02T04:35:29.615Z,1.12
2023-05-02T04:36:29.579Z,1.16
2023-05-02T04:37:29.569Z,1.21
2023-05-02T04:38:29.557Z,1.22
2023-05-02T04:39:29.552Z,1.29
2023-05-02T04:40:29.535Z,1.33
2023-05-02T04:41:29.562Z,1.42
2023-05-02T04:42:29.518Z,1.40
2023-05-02T04:43:29.518Z,1.37
2023-05-02T04:44:29.490Z,1.43
2023-05-02T04:45:29.500Z,1.46
2023-05-02T04:46:29.527Z,1.43
2023-05-02T04:47:29.519Z,1.36
2023-05-02T04:48:29.458Z,1.39
2023-05-02T04:49:29.464Z,1.42
2023-05-02T04:50:29.432Z,1.37
2023-05-02T04:51:29.424Z,1.39
2023-05-02T04:52:29.416Z,1.39
2023-05-02T04:53:29.425Z,1.42
2023-05-02T04:54:29.391Z,1.42
2023-05-02T04:55:29.390Z,1.46
2023-05-02T04:56:29.365Z,1.52
2023-05-02T04:57:29.357Z,1.55
2023-05-02T04:58:29.354Z,1.60
2023-05-02T04:59:29.365Z,1.65
2023-05-02T05:00:29.324Z,1.75
2023-05-02T05:01:29.329Z,1.76
2023-05-02T05:02:29.402Z,1.76
2023-05-02T05:03:29.352Z,1.78
2023-05-02T05:04:29.290Z,1.87
2023-05-02T05:05:29.345Z,1.93
2023-05-02T05:06:29.296Z,1.93
2023-05-02T05:07:29.256Z,2.01
2023-05-02T05:08:29.282Z,2.20
2023-05-02T05:09:29.246Z,2.28
2023-05-02T05:10:29.247Z,2.45
2023-05-02T05:11:29.266Z,2.52
2023-05-02T05:12:29.216Z,2.55
2023-05-02T05:13:29.218Z,2.61
2023-05-02T05:14:29.196Z,2.79
2023-05-02T05:15:29.183Z,2.79
2023-05-02T05:16:29.210Z,2.84
2023-05-02T05:17:29.220Z,2.94
2023-05-02T05:18:29.190Z,2.76
2023-05-02T05:19:29.148Z,2.84
2023-05-02T05:20:29.135Z,2.84
2023-05-02T05:21:29.130Z,3.05
2023-05-02T05:22:29.115Z,3.07
2023-05-02T05:23:29.132Z,3.06
2023-05-02T05:24:29.101Z,3.06
2023-05-02T05:25:29.098Z,3.15
2023-05-02T05:26:29.074Z,3.03
2023-05-02T05:27:29.077Z,3.03
2023-05-02T05:28:29.057Z,3.05
2023-05-02T05:29:29.068Z,3.10
2023-05-02T05:30:29.019Z,3.06
2023-05-02T05:31:29.105Z,3.03
2023-05-02T05:32:29.059Z,3.00
2023-05-02T05:33:29.031Z,2.94
2023-05-02T05:34:28.989Z,3.12
2023-05-02T05:35:29.011Z,2.91
2023-05-02T05:36:28.964Z,2.88
2023-05-02T05:37:28.961Z,3.09
2023-05-02T05:38:28.948Z,2.91
2023-05-02T05:39:28.935Z,3.00
2023-05-02T05:40:28.937Z,2.97
2023-05-02T05:41:28.951Z,2.69
2023-05-02T05:42:28.915Z,2.64
2023-05-02T05:43:28.905Z,2.69
2023-05-02T05:44:28.889Z,2.81
2023-05-02T05:45:28.873Z,2.87
2023-05-02T05:46:28.882Z,2.76
2023-05-02T05:47:29.057Z,2.85
2023-05-02T05:48:28.901Z,2.89
2023-05-02T05:49:28.853Z,2.89
2023-05-02T05:50:28.844Z,2.98
2023-05-02T05:51:28.825Z,3.02
2023-05-02T05:52:28.812Z,3.02
2023-05-02T05:53:28.845Z,3.03
2023-05-02T05:54:28.788Z,3.02
2023-05-02T05:55:28.831Z,3.02
2023-05-02T05:56:28.777Z,3.07
2023-05-02T05:57:28.779Z,3.03
2023-05-02T05:58:28.770Z,2.95
2023-05-02T05:59:28.767Z,3.00
2023-05-02T06:00:28.744Z,2.94
2023-05-02T06:01:28.726Z,2.95
2023-05-02T06:02:28.866Z,2.87
2023-05-02T06:03:28.759Z,2.89
2023-05-02T06:04:28.755Z,2.98
2023-05-02T06:05:28.710Z,3.06
2023-05-02T06:06:28.676Z,3.20
2023-05-02T06:07:28.660Z,3.28
2023-05-02T06:08:28.664Z,3.33
2023-05-02T06:09:28.632Z,3.44
2023-05-02T06:10:28.651Z,3.42
2023-05-02T06:11:29.404Z,3.42
2023-05-02T06:12:28.601Z,3.31
2023-05-02T06:13:28.604Z,3.28
2023-05-02T06:14:28.588Z,3.31
2023-05-02T06:15:28.579Z,3.42
2023-05-02T06:16:28.658Z,3.33
2023-05-02T06:17:28.622Z,3.33
2023-05-02T06:18:28.540Z,3.33
2023-05-02T06:19:28.534Z,3.28
2023-05-02T06:20:28.558Z,3.25
2023-05-02T06:21:28.509Z,3.24
2023-05-02T06:22:28.506Z,3.24
2023-05-02T06:23:28.513Z,3.21
2023-05-02T06:24:28.483Z,3.27
2023-05-02T06:25:28.477Z,3.31
2023-05-02T06:26:28.476Z,3.46
2023-05-02T06:27:28.471Z,3.65
2023-05-02T06:28:28.474Z,3.67
2023-05-02T06:29:28.460Z,3.67
2023-05-02T06:30:28.461Z,3.61
2023-05-02T06:31:28.478Z,3.64
2023-05-02T06:32:28.436Z,3.70
2023-05-02T06:33:28.393Z,3.83
2023-05-02T06:34:28.376Z,3.97
2023-05-02T06:35:28.403Z,4.12
2023-05-02T06:36:28.369Z,4.21
2023-05-02T06:37:28.354Z,4.08
2023-05-02T06:38:28.338Z,4.08
2023-05-02T06:39:28.383Z,4.06
2023-05-02T06:40:28.324Z,4.14
2023-05-02T06:41:28.344Z,4.28
2023-05-02T06:42:28.301Z,4.25
2023-05-02T06:43:28.308Z,4.32
2023-05-02T06:44:28.276Z,4.28
2023-05-02T06:45:28.287Z,4.26
2023-05-02T06:46:28.291Z,4.50
2023-05-02T06:47:28.326Z,4.59
2023-05-02T06:48:28.246Z,4.52
2023-05-02T06:49:28.268Z,4.69
2023-05-02T06:50:28.215Z,4.40
2023-05-02T06:51:28.227Z,4.19
2023-05-02T06:52:28.193Z,4.26
2023-05-02T06:53:28.206Z,4.44
2023-05-02T06:54:28.171Z,4.62
2023-05-02T06:55:28.160Z,4.67
2023-05-02T06:56:28.177Z,4.91
2023-05-02T06:57:28.149Z,4.91
2023-05-02T06:58:28.133Z,4.95
2023-05-02T06:59:28.160Z,5.09
2023-05-02T07:00:28.119Z,5.20
2023-05-02T07:01:28.212Z,5.38
2023-05-02T07:02:28.114Z,5.56
2023-05-02T07:03:28.086Z,5.59
2023-05-02T07:04:29.079Z,5.88
2023-05-02T07:05:28.098Z,6.10
2023-05-02T07:06:28.098Z,6.32
2023-05-02T07:07:28.052Z,6.30
2023-05-02T07:08:28.031Z,6.50
2023-05-02T07:09:28.034Z,6.56
2023-05-02T07:10:28.030Z,6.66
2023-05-02T07:11:28.065Z,6.68
2023-05-02T07:12:28.004Z,6.46
2023-05-02T07:13:27.989Z,6.47
2023-05-02T07:14:27.972Z,6.68
2023-05-02T07:15:27.969Z,6.53
2023-05-02T07:16:28.003Z,6.07
2023-05-02T07:17:28.032Z,5.67
2023-05-02T07:18:27.931Z,5.30
2023-05-02T07:19:27.939Z,4.95
2023-05-02T07:20:27.924Z,4.83
2023-05-02T07:21:27.910Z,5.09
2023-05-02T07:22:27.889Z,5.37
2023-05-02T07:23:27.917Z,5.64
2023-05-02T07:24:27.870Z,5.71
2023-05-02T07:25:27.868Z,5.88
2023-05-02T07:26:27.854Z,5.93
2023-05-02T07:27:27.852Z,5.85
2023-05-02T07:28:27.915Z,5.92
2023-05-02T07:29:27.851Z,6.07
2023-05-02T07:30:27.801Z,6.03
2023-05-02T07:31:27.824Z,6.11
2023-05-02T07:32:28.091Z,5.85
2023-05-02T07:33:27.800Z,5.70
2023-05-02T07:34:27.770Z,5.93
2023-05-02T07:35:27.837Z,6.21
2023-05-02T07:36:27.745Z,6.41
2023-05-02T07:37:27.756Z,6.76
2023-05-02T07:38:27.738Z,6.77
2023-05-02T07:39:27.717Z,6.95
2023-05-02T07:40:27.709Z,6.97
2023-05-02T07:41:27.737Z,7.16
2023-05-02T07:42:27.685Z,7.52
2023-05-02T07:43:27.683Z,7.49
2023-05-02T07:44:27.683Z,6.61
2023-05-02T07:45:27.659Z,6.16
2023-05-02T07:46:27.704Z,6.21
2023-05-02T07:47:27.751Z,6.32
2023-05-02T07:48:28.038Z,6.58
2023-05-02T07:49:27.635Z,6.58
2023-05-02T07:50:27.611Z,6.48
2023-05-02T07:51:27.612Z,6.89
2023-05-02T07:52:27.600Z,7.29
2023-05-02T07:53:27.608Z,7.16
2023-05-02T07:54:27.577Z,6.62
2023-05-02T07:55:27.562Z,6.41
2023-05-02T07:56:27.560Z,6.76
2023-05-02T07:57:27.545Z,7.02
2023-05-02T07:58:27.526Z,6.77
2023-05-02T07:59:27.550Z,6.73
2023-05-02T08:00:27.519Z,6.94
2023-05-02T08:01:27.499Z,7.08
2023-05-02T08:02:27.724Z,7.45
2023-05-02T08:03:27.633Z,7.90
2023-05-02T08:04:27.534Z,8.30
2023-05-02T08:05:27.491Z,8.66
2023-05-02T08:06:27.484Z,8.73
2023-05-02T08:07:27.452Z,9.01
2023-05-02T08:08:27.422Z,8.94
2023-05-02T08:09:27.421Z,9.24
2023-05-02T08:10:27.413Z,9.52
2023-05-02T08:11:27.417Z,9.60
2023-05-02T08:12:27.374Z,9.13
2023-05-02T08:13:27.381Z,9.10
2023-05-02T08:14:27.357Z,8.93
2023-05-02T08:15:27.343Z,8.58
2023-05-02T08:16:27.388Z,8.20
2023-05-02T08:17:27.399Z,8.21
2023-05-02T08:18:27.342Z,8.37
2023-05-02T08:19:27.319Z,8.73
2023-05-02T08:20:27.307Z,9.06
2023-05-02T08:21:27.296Z,9.39
2023-05-02T08:22:27.278Z,9.53
2023-05-02T08:23:27.302Z,8.55
2023-05-02T08:24:27.251Z,8.07
2023-05-02T08:25:27.246Z,7.94
2023-05-02T08:26:27.266Z,7.94
2023-05-02T08:27:27.225Z,7.84
2023-05-02T08:28:27.228Z,8.15
2023-05-02T08:29:27.232Z,8.63
2023-05-02T08:30:27.213Z,8.84
2023-05-02T08:31:27.218Z,8.78
2023-05-02T08:32:27.209Z,8.81
2023-05-02T08:33:27.170Z,8.36
2023-05-02T08:34:27.182Z,8.58
2023-05-02T08:35:27.182Z,9.01
2023-05-02T08:36:27.178Z,9.30
2023-05-02T08:37:27.122Z,8.86
2023-05-02T08:38:27.134Z,8.66
2023-05-02T08:39:27.120Z,8.83
2023-05-02T08:40:38.121Z,8.83
2023-05-02T08:41:28.118Z,8.53
2023-05-02T08:42:27.078Z,8.22
2023-05-02T08:43:27.065Z,8.00
2023-05-02T08:44:27.069Z,7.90
2023-05-02T08:45:27.040Z,8.22
2023-05-02T08:46:27.121Z,8.11
2023-05-02T08:47:27.115Z,7.84
2023-05-02T08:48:27.013Z,7.62
2023-05-02T08:49:27.009Z,7.72
2023-05-02T08:50:26.989Z,7.69
2023-05-02T08:51:27.044Z,7.93
2023-05-02T08:52:26.969Z,8.11
2023-05-02T08:53:26.977Z,8.18
2023-05-02T08:54:26.971Z,8.25
2023-05-02T08:55:26.943Z,8.35
2023-05-02T08:56:26.931Z,8.39
2023-05-02T08:57:26.907Z,8.40
2023-05-02T08:58:26.903Z,8.45
2023-05-02T08:59:26.914Z,8.45
2023-05-02T09:00:26.906Z,8.75
2023-05-02T09:01:26.904Z,8.83
2023-05-02T09:02:26.939Z,8.62
2023-05-02T09:03:26.850Z,9.13
2023-05-02T09:04:26.915Z,9.21
2023-05-02T09:05:26.849Z,8.91
2023-05-02T09:06:26.949Z,8.54
2023-05-02T09:07:26.807Z,8.62
2023-05-02T09:08:26.807Z,9.16
2023-05-02T09:09:26.783Z,9.57
2023-05-02T09:10:26.878Z,10.04
2023-05-02T09:11:26.784Z,9.18
2023-05-02T09:12:26.750Z,8.97
2023-05-02T09:13:27.108Z,9.45
2023-05-02T09:14:26.760Z,9.71
2023-05-02T09:15:26.732Z,10.06
2023-05-02T09:16:27.243Z,9.75
2023-05-02T09:17:27.677Z,9.52
2023-05-02T09:18:26.721Z,8.94
2023-05-02T09:19:26.700Z,8.90
2023-05-02T09:20:26.678Z,9.10
2023-05-02T09:21:26.664Z,9.23
2023-05-02T09:22:26.661Z,8.91
2023-05-02T09:23:26.696Z,8.84
2023-05-02T09:24:26.636Z,9.18
2023-05-02T09:25:26.623Z,9.49
2023-05-02T09:26:27.495Z,9.50
2023-05-02T09:27:26.627Z,9.58
2023-05-02T09:28:26.638Z,9.46
2023-05-02T09:29:26.616Z,9.78
2023-05-02T09:30:26.624Z,10.00
2023-05-02T09:31:49.716Z,10.37
2023-05-02T09:32:27.586Z,10.91
2023-05-02T09:33:26.535Z,11.06
2023-05-02T09:34:26.539Z,10.84
2023-05-02T09:35:26.553Z,10.88
2023-05-02T09:36:26.511Z,9.83
2023-05-02T09:37:26.486Z,9.79
2023-05-02T09:38:26.485Z,9.78
2023-05-02T09:39:26.620Z,9.88
2023-05-02T09:40:26.460Z,9.49
2023-05-02T09:41:26.498Z,9.50
2023-05-02T09:42:26.460Z,9.12
2023-05-02T09:43:26.434Z,8.57
2023-05-02T09:44:26.444Z,8.71
2023-05-02T09:45:26.421Z,9.18
2023-05-02T09:46:26.450Z,8.96
2023-05-02T09:47:26.520Z,9.02
2023-05-02T09:48:26.390Z,9.25
2023-05-02T09:49:26.374Z,9.48
2023-05-02T09:50:26.370Z,9.49
2023-05-02T09:51:26.347Z,9.53
2023-05-02T09:52:26.367Z,10.14
2023-05-02T09:53:26.357Z,10.73
2023-05-02T09:54:26.324Z,11.29
2023-05-02T09:55:26.312Z,11.80
2023-05-02T09:56:26.312Z,11.68
2023-05-02T09:57:26.306Z,11.27
2023-05-02T09:58:26.298Z,11.35
2023-05-02T09:59:26.293Z,11.19
2023-05-02T10:00:26.278Z,10.70
2023-05-02T10:01:26.249Z,10.63
2023-05-02T10:02:26.336Z,10.44
2023-05-02T10:03:26.232Z,9.63
2023-05-02T10:04:26.222Z,9.13
2023-05-02T10:05:26.504Z,9.28
2023-05-02T10:06:26.240Z,9.43
2023-05-02T10:07:26.405Z,9.86
2023-05-02T10:08:26.187Z,10.22
2023-05-02T10:09:26.192Z,10.07
2023-05-02T10:10:26.173Z,10.01
2023-05-02T10:11:26.177Z,10.42
2023-05-02T10:12:26.151Z,10.55
2023-05-02T10:13:26.127Z,10.62
2023-05-02T10:14:27.782Z,10.56
2023-05-02T10:15:26.112Z,9.70
2023-05-02T10:16:26.196Z,9.96
2023-05-02T10:17:26.165Z,10.63
2023-05-02T10:18:26.078Z,11.29
2023-05-02T10:19:26.062Z,10.47
2023-05-02T10:20:26.956Z,10.83
2023-05-02T10:21:26.050Z,10.53
2023-05-02T10:22:26.046Z,10.80
2023-05-02T10:23:26.053Z,10.88
2023-05-02T10:24:26.022Z,9.91
2023-05-02T10:25:26.012Z,9.35
2023-05-02T10:26:26.013Z,9.15
2023-05-02T10:27:25.992Z,9.25
2023-05-02T10:28:25.988Z,9.13
2023-05-02T10:29:26.004Z,8.91
2023-05-02T10:30:25.955Z,9.64
2023-05-02T10:31:25.953Z,10.32
2023-05-02T10:32:25.964Z,11.02
2023-05-02T10:33:25.930Z,11.27
2023-05-02T10:34:25.917Z,10.94
2023-05-02T10:35:25.938Z,10.58
2023-05-02T10:36:25.922Z,10.74
2023-05-02T10:37:25.899Z,10.98
2023-05-02T10:38:25.879Z,10.89
2023-05-02T10:39:25.871Z,11.31
2023-05-02T10:40:25.867Z,11.32
2023-05-02T10:41:25.866Z,10.73
2023-05-02T10:42:25.852Z,9.86
2023-05-02T10:43:25.838Z,9.34
2023-05-02T10:44:26.749Z,9.40
2023-05-02T10:45:25.813Z,9.78
2023-05-02T10:46:25.871Z,10.06
2023-05-02T10:47:25.848Z,10.15
2023-05-02T10:48:25.788Z,10.62
2023-05-02T10:49:25.772Z,10.73
2023-05-02T10:50:26.513Z,10.28
2023-05-02T10:51:25.786Z,10.53
2023-05-02T10:52:25.755Z,10.99
2023-05-02T10:53:25.779Z,10.88
2023-05-02T10:54:25.718Z,10.55
2023-05-02T10:55:25.695Z,10.52
2023-05-02T10:56:27.114Z,10.40
2023-05-02T10:57:25.682Z,10.32
2023-05-02T10:58:25.673Z,10.65
2023-05-02T10:59:25.677Z,10.94
2023-05-02T11:00:25.650Z,10.55
2023-05-02T11:01:25.918Z,10.56
2023-05-02T11:02:25.793Z,10.24
2023-05-02T11:03:25.647Z,10.47
2023-05-02T11:04:25.631Z,10.56
2023-05-02T11:05:25.626Z,10.65
2023-05-02T11:06:25.626Z,10.47
2023-05-02T11:07:25.579Z,10.84
2023-05-02T11:08:25.574Z,10.73
2023-05-02T11:09:25.572Z,10.65
2023-05-02T11:10:25.560Z,10.47
2023-05-02T11:11:25.577Z,10.40
2023-05-02T11:12:25.542Z,10.60
2023-05-02T11:13:25.536Z,11.06
2023-05-02T11:14:25.531Z,11.65
2023-05-02T11:15:25.997Z,11.83
2023-05-02T11:16:25.528Z,12.31
2023-05-02T11:17:25.546Z,12.84
2023-05-02T11:18:25.486Z,13.32
2023-05-02T11:19:25.474Z,13.58
2023-05-02T11:20:25.478Z,12.95
2023-05-02T11:21:25.458Z,12.74
2023-05-02T11:22:25.492Z,12.74
2023-05-02T11:23:25.774Z,12.09
2023-05-02T11:24:25.434Z,12.45
2023-05-02T11:25:25.426Z,12.99
2023-05-02T11:26:25.418Z,13.54
2023-05-02T11:27:25.398Z,13.07
2023-05-02T11:28:25.388Z,11.62
2023-05-02T11:29:25.403Z,11.44
2023-05-02T11:30:25.397Z,11.35
2023-05-02T11:31:25.404Z,10.68
2023-05-02T11:32:25.429Z,10.65
2023-05-02T11:33:25.338Z,10.58
2023-05-02T11:34:25.353Z,10.59
2023-05-02T11:35:25.856Z,10.58
2023-05-02T11:36:25.304Z,10.25
2023-05-02T11:37:25.288Z,9.99
2023-05-02T11:38:25.271Z,10.10
2023-05-02T11:39:25.265Z,9.89
2023-05-02T11:40:25.252Z,9.94
2023-05-02T11:41:25.481Z,10.34
2023-05-02T11:42:25.224Z,10.53
2023-05-02T11:43:25.233Z,10.78
2023-05-02T11:44:25.198Z,11.36
2023-05-02T11:45:25.185Z,12.04
2023-05-02T11:46:25.229Z,12.45
2023-05-02T11:47:25.194Z,12.31
2023-05-02T11:48:25.157Z,12.23
2023-05-02T11:49:25.153Z,11.87
2023-05-02T11:50:25.160Z,11.50
2023-05-02T11:51:25.124Z,11.75
2023-05-02T11:52:25.150Z,11.82
2023-05-02T11:53:25.138Z,11.99
2023-05-02T11:54:25.107Z,12.41
2023-05-02T11:55:25.143Z,12.95
2023-05-02T11:56:25.089Z,13.12
2023-05-02T11:57:25.062Z,12.93
2023-05-02T11:58:25.078Z,12.66
2023-05-02T11:59:25.084Z,12.88
2023-05-02T12:00:25.048Z,12.51
2023-05-02T12:01:25.025Z,11.72
2023-05-02T12:02:25.079Z,11.50
2023-05-02T12:03:25.217Z,10.56
2023-05-02T12:04:25.006Z,10.04
2023-05-02T12:05:25.046Z,10.09
2023-05-02T12:06:25.031Z,10.60
2023-05-02T12:07:24.970Z,11.34
2023-05-02T12:08:24.971Z,11.78
2023-05-02T12:09:24.952Z,12.31
2023-05-02T12:10:24.929Z,12.85
2023-05-02T12:11:24.945Z,12.97
2023-05-02T12:12:24.914Z,12.29
2023-05-02T12:13:24.899Z,12.20
2023-05-02T12:14:24.881Z,12.62
2023-05-02T12:15:24.882Z,13.03
2023-05-02T12:16:24.987Z,13.56
2023-05-02T12:17:24.936Z,14.07
2023-05-02T12:18:24.863Z,14.47
2023-05-02T12:19:24.833Z,14.93
2023-05-02T12:20:24.818Z,15.21
2023-05-02T12:21:24.811Z,15.19
2023-05-02T12:22:24.812Z,15.02
2023-05-02T12:23:24.812Z,13.67
2023-05-02T12:24:24.782Z,12.87
2023-05-02T12:25:24.766Z,12.77
2023-05-02T12:26:24.757Z,12.74
2023-05-02T12:27:24.746Z,12.15
2023-05-02T12:28:24.757Z,11.54
2023-05-02T12:29:24.751Z,11.03
2023-05-02T12:30:24.735Z,10.92
2023-05-02T12:31:24.817Z,10.88
2023-05-02T12:32:26.919Z,10.83
2023-05-02T12:33:24.712Z,10.66
2023-05-02T12:34:24.682Z,10.71
2023-05-02T12:35:24.702Z,10.81
2023-05-02T12:36:24.656Z,10.86
2023-05-02T12:37:24.658Z,10.52
2023-05-02T12:38:24.641Z,10.51
2023-05-02T12:39:24.631Z,10.96
2023-05-02T12:40:24.642Z,11.54
2023-05-02T12:41:24.645Z,11.86
2023-05-02T12:42:24.599Z,12.06
2023-05-02T12:43:24.589Z,12.15
2023-05-02T12:44:24.579Z,12.13
2023-05-02T12:45:24.571Z,11.41
2023-05-02T12:46:24.582Z,10.99
2023-05-02T12:47:24.997Z,10.95
2023-05-02T12:48:24.530Z,11.10
2023-05-02T12:49:24.518Z,11.32
2023-05-02T12:50:24.507Z,11.35
2023-05-02T12:51:24.501Z,11.65
2023-05-02T12:52:24.486Z,11.72
2023-05-02T12:53:24.499Z,11.74
2023-05-02T12:54:24.474Z,11.62
2023-05-02T12:55:24.551Z,12.02
2023-05-02T12:56:24.455Z,11.80
2023-05-02T12:57:24.436Z,11.77
2023-05-02T12:58:24.430Z,12.24
2023-05-02T12:59:24.445Z,12.44
2023-05-02T13:00:24.385Z,12.21
2023-05-02T13:01:24.435Z,11.90
2023-05-02T13:02:24.390Z,11.78
2023-05-02T13:03:24.476Z,11.28
2023-05-02T13:04:24.476Z,10.84
2023-05-02T13:05:24.371Z,10.77
2023-05-02T13:06:24.355Z,10.59